createdAt,value
2019-02-19T00:00:29.301Z,7.62
2019-02-19T00:02:57.495Z,7.61
2019-02-19T00:05:25.715Z,7.62
2019-02-19T00:07:53.910Z,7.61
2019-02-19T00:10:22.406Z,7.59
2019-02-19T00:12:50.882Z,7.57
2019-02-19T00:15:19.420Z,7.55
2019-02-19T00:17:47.851Z,7.53
2019-02-19T00:20:16.061Z,7.53
2019-02-19T00:22:44.260Z,7.52
2019-02-19T00:25:12.572Z,7.49
2019-02-19T00:27:41.149Z,7.45
2019-02-19T00:30:09.347Z,7.42
2019-02-19T00:32:37.555Z,7.40
2019-02-19T00:35:06.528Z,7.37
2019-02-19T00:37:34.741Z,7.33
2019-02-19T00:40:03.246Z,7.31
2019-02-19T00:42:31.764Z,7.29
2019-02-19T00:44:59.923Z,7.29
2019-02-19T00:47:28.131Z,7.27
2019-02-19T00:49:56.327Z,7.28
2019-02-19T00:52:27.611Z,7.29
2019-02-19T00:54:55.794Z,7.31
2019-02-19T00:57:24.003Z,7.29
2019-02-19T00:59:52.201Z,7.28
2019-02-19T01:02:20.406Z,7.26
2019-02-19T01:04:48.602Z,7.23
2019-02-19T01:07:16.814Z,7.20
2019-02-19T01:09:45.023Z,7.17
2019-02-19T01:12:13.224Z,7.13
2019-02-19T01:14:41.681Z,7.12
2019-02-19T01:17:09.888Z,7.09
2019-02-19T01:19:38.091Z,7.05
2019-02-19T01:22:06.295Z,7.03
2019-02-19T01:24:34.497Z,7.03
2019-02-19T01:27:02.693Z,7.02
2019-02-19T01:29:30.910Z,7.05
2019-02-19T01:31:59.091Z,7.05
2019-02-19T01:34:27.299Z,7.06
2019-02-19T01:36:55.491Z,7.06
2019-02-19T01:39:23.717Z,7.07
2019-02-19T01:41:51.908Z,7.07
2019-02-19T01:44:20.114Z,7.06
2019-02-19T01:46:48.303Z,7.06
2019-02-19T01:49:16.505Z,7.07
2019-02-19T01:51:44.706Z,7.08
2019-02-19T01:54:12.919Z,7.06
2019-02-19T01:56:41.119Z,7.06
2019-02-19T01:59:09.686Z,7.05
2019-02-19T02:01:37.909Z,7.02
2019-02-19T02:04:06.119Z,7.00
2019-02-19T02:06:34.315Z,6.98
2019-02-19T02:09:02.780Z,6.97
2019-02-19T02:11:30.993Z,6.97
2019-02-19T02:13:59.186Z,6.98
2019-02-19T02:16:27.675Z,6.99
2019-02-19T02:18:55.872Z,7.02
2019-02-19T02:21:24.083Z,7.05
2019-02-19T02:23:52.326Z,7.05
2019-02-19T02:26:20.534Z,7.04
2019-02-19T02:28:49.047Z,7.05
2019-02-19T02:31:17.248Z,7.06
2019-02-19T02:33:45.689Z,7.06
2019-02-19T02:36:13.898Z,7.07
2019-02-19T02:38:42.105Z,7.11
2019-02-19T02:41:10.310Z,7.16
2019-02-19T02:43:38.508Z,7.20
2019-02-19T02:46:06.716Z,7.28
2019-02-19T02:48:34.910Z,7.33
2019-02-19T02:51:03.114Z,7.39
2019-02-19T02:53:31.308Z,7.43
2019-02-19T02:55:59.505Z,7.47
2019-02-19T02:58:27.721Z,7.52
2019-02-19T03:00:55.992Z,7.56
2019-02-19T03:03:24.214Z,7.61
2019-02-19T03:06:01.735Z,7.64
2019-02-19T03:08:29.938Z,7.69
2019-02-19T03:10:58.134Z,7.73
2019-02-19T03:13:26.331Z,7.76
2019-02-19T03:16:02.221Z,7.79
2019-02-19T03:18:24.463Z,7.82
2019-02-19T03:20:53.092Z,7.85
2019-02-19T03:23:21.296Z,7.86
2019-02-19T03:25:49.497Z,7.90
2019-02-19T03:28:17.714Z,7.91
2019-02-19T03:30:45.914Z,7.91
2019-02-19T03:33:14.126Z,7.92
2019-02-19T03:35:42.308Z,7.95
2019-02-19T03:38:10.525Z,7.95
2019-02-19T03:40:38.704Z,7.96
2019-02-19T03:43:07.174Z,7.97
2019-02-19T03:45:35.368Z,7.98
2019-02-19T03:48:03.562Z,8.00
2019-02-19T03:50:31.772Z,8.01
2019-02-19T03:52:59.965Z,8.02
2019-02-19T03:55:28.204Z,8.02
2019-02-19T03:57:56.366Z,8.03
2019-02-19T04:00:24.581Z,8.00
2019-02-19T04:02:52.784Z,8.00
2019-02-19T04:05:20.984Z,7.99
2019-02-19T04:07:49.178Z,7.96
2019-02-19T04:10:17.384Z,7.96
2019-02-19T04:12:45.881Z,7.95
2019-02-19T04:15:14.089Z,7.94
2019-02-19T04:17:42.283Z,7.92
2019-02-19T04:20:10.495Z,7.92
2019-02-19T04:22:38.715Z,7.90
2019-02-19T04:25:06.924Z,7.90
2019-02-19T04:27:35.449Z,7.90
2019-02-19T04:30:04.632Z,7.90
2019-02-19T04:32:32.833Z,7.90
2019-02-19T04:35:01.059Z,7.92
2019-02-19T04:37:30.083Z,7.91
2019-02-19T04:39:58.336Z,7.90
2019-02-19T04:42:26.544Z,7.88
2019-02-19T04:44:54.743Z,7.86
2019-02-19T04:47:22.954Z,7.83
2019-02-19T04:49:51.151Z,7.81
2019-02-19T04:52:19.356Z,7.77
2019-02-19T04:54:47.907Z,7.72
2019-02-19T04:57:16.119Z,7.67
2019-02-19T04:59:44.775Z,7.63
2019-02-19T05:02:12.981Z,7.59
2019-02-19T05:04:41.171Z,7.53
2019-02-19T05:07:09.389Z,7.49
2019-02-19T05:09:37.578Z,7.47
2019-02-19T05:12:06.084Z,7.44
2019-02-19T05:14:34.299Z,7.42
2019-02-19T05:17:02.512Z,7.41
2019-02-19T05:19:30.712Z,7.39
2019-02-19T05:21:58.911Z,7.38
2019-02-19T05:24:27.448Z,7.35
2019-02-19T05:26:55.656Z,7.33
2019-02-19T05:29:23.870Z,7.32
2019-02-19T05:31:52.072Z,7.30
2019-02-19T05:34:20.636Z,7.29
2019-02-19T05:36:48.840Z,7.27
2019-02-19T05:39:17.029Z,7.26
2019-02-19T05:41:45.253Z,7.27
2019-02-19T05:44:13.507Z,7.27
2019-02-19T05:46:49.627Z,7.27
2019-02-19T05:49:11.642Z,7.27
2019-02-19T05:51:39.842Z,7.29
2019-02-19T05:54:08.050Z,7.30
2019-02-19T05:56:36.565Z,7.30
2019-02-19T05:59:04.765Z,7.31
2019-02-19T06:01:33.340Z,7.32
2019-02-19T06:04:01.532Z,7.32
2019-02-19T06:06:30.094Z,7.32
2019-02-19T06:08:58.304Z,7.32
2019-02-19T06:11:26.506Z,7.33
2019-02-19T06:13:54.717Z,7.33
2019-02-19T06:16:23.289Z,7.32
2019-02-19T06:18:51.482Z,7.32
2019-02-19T06:21:19.698Z,7.32
2019-02-19T06:23:47.892Z,7.31
2019-02-19T06:26:16.104Z,7.30
2019-02-19T06:28:44.297Z,7.29
2019-02-19T06:31:12.524Z,7.29
2019-02-19T06:33:40.739Z,7.29
2019-02-19T06:36:08.962Z,7.28
2019-02-19T06:38:37.145Z,7.27
2019-02-19T06:41:05.651Z,7.26
2019-02-19T06:43:33.853Z,7.26
2019-02-19T06:46:02.049Z,7.25
2019-02-19T06:48:30.251Z,7.25
2019-02-19T06:50:58.479Z,7.25
2019-02-19T06:53:27.023Z,7.25
2019-02-19T06:55:55.230Z,7.24
2019-02-19T06:58:23.426Z,7.24
2019-02-19T07:00:51.635Z,7.26
2019-02-19T07:03:21.727Z,7.26
2019-02-19T07:05:49.933Z,7.28
2019-02-19T07:08:18.430Z,7.28
2019-02-19T07:10:46.633Z,7.29
2019-02-19T07:13:14.843Z,7.32
2019-02-19T07:15:43.055Z,7.35
2019-02-19T07:18:11.256Z,7.36
2019-02-19T07:20:39.452Z,7.37
2019-02-19T07:23:07.667Z,7.39
2019-02-19T07:25:35.876Z,7.41
2019-02-19T07:28:04.439Z,7.45
2019-02-19T07:30:32.642Z,7.47
2019-02-19T07:33:01.183Z,7.52
2019-02-19T07:35:29.386Z,7.58
2019-02-19T07:37:57.616Z,7.61
2019-02-19T07:40:26.119Z,7.66
2019-02-19T07:42:54.324Z,7.67
2019-02-19T07:45:22.514Z,7.68
2019-02-19T07:47:50.717Z,7.69
2019-02-19T07:50:19.221Z,7.68
2019-02-19T07:52:47.449Z,7.69
2019-02-19T07:55:15.658Z,7.69
2019-02-19T07:57:43.873Z,7.69
2019-02-19T08:00:13.628Z,7.69
2019-02-19T08:02:41.865Z,7.69
2019-02-19T08:05:10.418Z,7.71
2019-02-19T08:07:38.620Z,7.72
2019-02-19T08:10:09.825Z,7.73
2019-02-19T08:12:38.320Z,7.74
2019-02-19T08:15:08.993Z,7.75
2019-02-19T08:17:37.200Z,7.78
2019-02-19T08:20:15.478Z,7.79
2019-02-19T08:22:36.955Z,7.82
2019-02-19T08:25:05.844Z,7.84
2019-02-19T08:27:34.351Z,7.84
2019-02-19T08:30:02.558Z,7.84
2019-02-19T08:32:30.749Z,7.86
2019-02-19T08:34:59.055Z,7.87
2019-02-19T08:37:27.270Z,7.91
2019-02-19T08:39:55.716Z,7.90
2019-02-19T08:42:23.919Z,7.89
2019-02-19T08:44:52.134Z,7.89
2019-02-19T08:47:20.324Z,7.88
2019-02-19T08:49:48.521Z,7.89
2019-02-19T08:52:18.656Z,7.87
2019-02-19T08:54:46.926Z,7.87
2019-02-19T08:57:15.152Z,7.87
2019-02-19T08:59:43.333Z,7.85
2019-02-19T09:02:11.580Z,7.85
2019-02-19T09:04:40.118Z,7.87
2019-02-19T09:07:08.706Z,7.90
2019-02-19T09:09:36.904Z,7.95
2019-02-19T09:12:05.413Z,8.02
2019-02-19T09:14:33.609Z,8.09
2019-02-19T09:17:02.173Z,8.15
2019-02-19T09:19:30.370Z,8.19
2019-02-19T09:21:58.578Z,8.25
2019-02-19T09:24:26.779Z,8.33
2019-02-19T09:26:54.997Z,8.39
2019-02-19T09:29:23.200Z,8.43
2019-02-19T09:31:51.675Z,8.48
2019-02-19T09:34:19.888Z,8.51
2019-02-19T09:36:48.096Z,8.56
2019-02-19T09:39:16.300Z,8.57
2019-02-19T09:41:44.495Z,8.60
2019-02-19T09:44:12.704Z,8.65
2019-02-19T09:46:40.903Z,8.73
2019-02-19T09:49:09.468Z,8.81
2019-02-19T09:51:37.678Z,8.83
2019-02-19T09:54:05.888Z,8.84
2019-02-19T09:56:34.159Z,8.84
2019-02-19T09:59:02.363Z,8.85
2019-02-19T10:01:30.582Z,8.87
2019-02-19T10:03:58.781Z,8.88
2019-02-19T10:06:26.995Z,8.94
2019-02-19T10:08:55.187Z,9.00
2019-02-19T10:11:23.749Z,9.05
2019-02-19T10:13:51.946Z,9.06
2019-02-19T10:16:20.143Z,9.08
2019-02-19T10:18:48.361Z,9.09
2019-02-19T10:21:16.553Z,9.11
2019-02-19T10:23:44.762Z,9.16
2019-02-19T10:26:12.970Z,9.22
2019-02-19T10:28:41.181Z,9.26
2019-02-19T10:31:09.378Z,9.30
2019-02-19T10:33:37.607Z,9.33
2019-02-19T10:36:05.796Z,9.37
2019-02-19T10:38:34.021Z,9.41
2019-02-19T10:41:02.214Z,9.46
2019-02-19T10:43:30.714Z,9.44
2019-02-19T10:45:58.920Z,9.32
2019-02-19T10:48:27.491Z,9.19
2019-02-19T10:50:55.954Z,9.13
2019-02-19T10:53:24.147Z,9.13
2019-02-19T10:55:52.361Z,9.22
2019-02-19T10:58:23.051Z,9.28
2019-02-19T11:00:50.513Z,9.37
2019-02-19T11:03:18.995Z,9.50
2019-02-19T11:05:47.219Z,9.59
2019-02-19T11:08:15.401Z,9.72
2019-02-19T11:10:43.614Z,9.87
2019-02-19T11:13:11.814Z,9.96
2019-02-19T11:15:40.020Z,9.94
2019-02-19T11:18:08.217Z,9.86
2019-02-19T11:20:36.709Z,9.74
2019-02-19T11:23:05.290Z,9.64
2019-02-19T11:25:33.505Z,9.58
2019-02-19T11:28:01.703Z,9.54
2019-02-19T11:30:29.900Z,9.51
2019-02-19T11:32:58.394Z,9.51
2019-02-19T11:35:26.895Z,9.53
2019-02-19T11:37:55.372Z,9.54
2019-02-19T11:40:23.844Z,9.57
2019-02-19T11:42:52.083Z,9.55
2019-02-19T11:45:20.607Z,9.49
2019-02-19T11:47:49.095Z,9.44
2019-02-19T11:50:17.308Z,9.37
2019-02-19T11:52:45.502Z,9.31
2019-02-19T11:55:15.954Z,9.25
2019-02-19T11:57:44.146Z,9.19
2019-02-19T12:00:16.086Z,9.16
2019-02-19T12:02:44.262Z,9.13
2019-02-19T12:05:12.463Z,9.12
2019-02-19T12:07:40.692Z,9.10
2019-02-19T12:10:09.503Z,9.07
2019-02-19T12:12:37.681Z,9.07
2019-02-19T12:15:08.679Z,9.08
2019-02-19T12:17:36.911Z,9.07
2019-02-19T12:20:06.968Z,9.04
2019-02-19T12:22:35.173Z,8.97
2019-02-19T12:25:03.447Z,8.91
2019-02-19T12:27:31.642Z,8.88
2019-02-19T12:29:59.869Z,8.83
2019-02-19T12:32:28.398Z,8.79
2019-02-19T12:34:56.610Z,8.80
2019-02-19T12:37:24.816Z,8.83
2019-02-19T12:39:53.016Z,8.88
2019-02-19T12:42:21.219Z,8.92
2019-02-19T12:44:49.416Z,8.93
2019-02-19T12:47:17.955Z,8.91
2019-02-19T12:49:46.174Z,8.91
2019-02-19T12:52:14.730Z,8.88
2019-02-19T12:54:42.919Z,8.86
2019-02-19T12:57:11.122Z,8.85
2019-02-19T12:59:39.330Z,8.84
2019-02-19T13:02:07.526Z,8.82
2019-02-19T13:04:35.754Z,8.76
2019-02-19T13:07:03.936Z,8.69
2019-02-19T13:09:32.153Z,8.59
2019-02-19T13:12:00.355Z,8.51
2019-02-19T13:14:28.554Z,8.44
2019-02-19T13:16:57.093Z,8.38
2019-02-19T13:19:25.298Z,8.33
2019-02-19T13:21:53.515Z,8.28
2019-02-19T13:24:21.728Z,8.21
2019-02-19T13:26:51.097Z,8.17
2019-02-19T13:29:19.335Z,8.14
2019-02-19T13:31:47.527Z,8.11
2019-02-19T13:34:15.736Z,8.11
2019-02-19T13:36:43.932Z,8.08
2019-02-19T13:39:12.494Z,8.06
2019-02-19T13:41:40.954Z,8.06
2019-02-19T13:44:09.154Z,8.06
2019-02-19T13:46:37.377Z,8.06
2019-02-19T13:49:11.982Z,8.06
2019-02-19T13:51:36.118Z,8.05
2019-02-19T13:54:05.963Z,8.05
2019-02-19T13:56:34.192Z,8.07
2019-02-19T13:59:02.401Z,8.11
2019-02-19T14:01:30.608Z,8.15
2019-02-19T14:03:58.815Z,8.17
2019-02-19T14:06:27.309Z,8.18
2019-02-19T14:08:55.518Z,8.19
2019-02-19T14:11:24.062Z,8.14
2019-02-19T14:13:54.188Z,8.08
2019-02-19T14:16:26.967Z,8.03
2019-02-19T14:18:56.824Z,7.98
2019-02-19T14:21:29.463Z,7.94
2019-02-19T14:23:59.310Z,7.89
2019-02-19T14:26:45.219Z,7.86
2019-02-19T14:29:30.353Z,7.84
2019-02-19T14:32:03.118Z,7.83
2019-02-19T14:34:48.293Z,7.81
2019-02-19T14:37:27.101Z,7.77
2019-02-19T14:40:10.199Z,7.72
2019-02-19T14:42:46.005Z,7.72
2019-02-19T14:45:18.798Z,7.74
2019-02-19T14:48:04.489Z,7.77
2019-02-19T14:50:37.448Z,7.76
2019-02-19T14:53:19.543Z,7.78
2019-02-19T14:56:05.624Z,7.76
2019-02-19T14:58:51.306Z,7.75
2019-02-19T15:01:21.133Z,7.74
2019-02-19T15:04:07.238Z,7.71
2019-02-19T15:06:46.570Z,7.71
2019-02-19T15:09:25.393Z,7.69
2019-02-19T15:11:55.231Z,7.66
2019-02-19T15:14:30.846Z,7.62
2019-02-19T15:17:01.974Z,7.58
2019-02-19T15:19:47.981Z,7.52
2019-02-19T15:22:17.838Z,7.44
2019-02-19T15:25:05.474Z,7.36
2019-02-19T15:27:35.316Z,7.31
2019-02-19T15:30:14.677Z,7.25
2019-02-19T15:32:44.487Z,7.22
2019-02-19T15:35:41.152Z,7.19
2019-02-19T15:38:20.255Z,7.19
2019-02-19T15:40:50.434Z,7.19
2019-02-19T15:43:32.611Z,7.22
2019-02-19T15:46:11.101Z,7.28
2019-02-19T15:48:59.472Z,7.30
2019-02-19T15:51:34.995Z,7.32
2019-02-19T15:54:11.077Z,7.34
2019-02-19T15:56:55.715Z,7.34
2019-02-19T15:59:34.289Z,7.37
2019-02-19T16:02:23.160Z,7.39
2019-02-19T16:05:11.383Z,7.42
2019-02-19T16:07:47.628Z,7.44
2019-02-19T16:10:26.097Z,7.46
2019-02-19T16:13:02.593Z,7.47
2019-02-19T16:15:32.391Z,7.48
2019-02-19T16:18:18.509Z,7.52
2019-02-19T16:21:04.697Z,7.52
2019-02-19T16:23:34.529Z,7.53
2019-02-19T16:26:05.210Z,7.53
2019-02-19T16:28:43.749Z,7.53
2019-02-19T16:31:19.286Z,7.54
2019-02-19T16:33:49.447Z,7.54
2019-02-19T16:36:28.781Z,7.55
2019-02-19T16:39:01.337Z,7.54
2019-02-19T16:41:31.187Z,7.55
2019-02-19T16:44:04.090Z,7.55
2019-02-19T16:46:45.813Z,7.55
2019-02-19T16:49:15.682Z,7.54
2019-02-19T16:51:48.727Z,7.55
2019-02-19T16:54:18.865Z,7.54
2019-02-19T16:56:48.702Z,7.55
2019-02-19T16:59:34.811Z,7.53
2019-02-19T17:02:15.341Z,7.48
2019-02-19T17:04:53.923Z,7.45
2019-02-19T17:07:32.232Z,7.43
2019-02-19T17:10:20.459Z,7.41
2019-02-19T17:12:53.217Z,7.39
2019-02-19T17:15:39.403Z,7.38
2019-02-19T17:18:09.252Z,7.38
2019-02-19T17:20:39.131Z,7.38
2019-02-19T17:23:08.983Z,7.38
2019-02-19T17:25:41.499Z,7.40
2019-02-19T17:28:14.090Z,7.40
2019-02-19T17:30:43.945Z,7.43
2019-02-19T17:33:23.033Z,7.44
2019-02-19T17:35:53.296Z,7.44
2019-02-19T17:38:31.958Z,7.44
2019-02-19T17:41:09.097Z,7.44
2019-02-19T17:43:41.633Z,7.45
2019-02-19T17:46:14.543Z,7.45
2019-02-19T17:48:44.597Z,7.46
2019-02-19T17:51:14.764Z,7.47
2019-02-19T17:53:47.866Z,7.47
2019-02-19T17:56:21.102Z,7.47
2019-02-19T17:59:00.049Z,7.47
2019-02-19T18:01:40.858Z,7.49
2019-02-19T18:04:11.148Z,7.49
2019-02-19T18:06:47.153Z,7.51
2019-02-19T18:09:19.986Z,7.51
2019-02-19T18:11:55.726Z,7.51
2019-02-19T18:14:25.544Z,7.51
2019-02-19T18:17:11.757Z,7.51
2019-02-19T18:19:40.248Z,7.51
2019-02-19T18:22:08.484Z,7.51
2019-02-19T18:24:36.684Z,7.50
2019-02-19T18:27:04.982Z,7.49
2019-02-19T18:29:33.149Z,7.48
2019-02-19T18:32:01.628Z,7.47
2019-02-19T18:34:30.128Z,7.47
2019-02-19T18:36:58.332Z,7.47
2019-02-19T18:39:26.536Z,7.48
2019-02-19T18:41:54.740Z,7.48
2019-02-19T18:44:22.951Z,7.51
2019-02-19T18:46:51.151Z,7.51
2019-02-19T18:49:19.407Z,7.53
2019-02-19T18:51:47.995Z,7.53
2019-02-19T18:54:16.186Z,7.53
2019-02-19T18:56:51.328Z,7.55
2019-02-19T18:59:15.869Z,7.54
2019-02-19T19:01:43.997Z,7.54
2019-02-19T19:04:12.357Z,7.55
2019-02-19T19:06:42.890Z,7.56
2019-02-19T19:09:11.099Z,7.56
2019-02-19T19:11:42.053Z,7.55
2019-02-19T19:14:10.371Z,7.54
2019-02-19T19:16:38.591Z,7.54
2019-02-19T19:19:07.187Z,7.55
2019-02-19T19:21:35.388Z,7.54
2019-02-19T19:24:03.584Z,7.54
2019-02-19T19:29:07.174Z,7.54
2019-02-19T19:31:35.729Z,7.55
2019-02-19T19:34:07.836Z,7.55
2019-02-19T19:36:35.438Z,7.54
2019-02-19T19:39:04.808Z,7.53
2019-02-19T19:41:33.021Z,7.53
2019-02-19T19:44:01.214Z,7.53
2019-02-19T19:46:29.441Z,7.52
2019-02-19T19:48:57.644Z,7.52
2019-02-19T19:51:25.852Z,7.52
2019-02-19T19:53:56.604Z,7.52
2019-02-19T19:56:24.820Z,7.51
2019-02-19T19:58:53.431Z,7.50
2019-02-19T20:01:21.875Z,7.50
2019-02-19T20:03:50.040Z,7.50
2019-02-19T20:06:20.199Z,7.47
2019-02-19T20:08:48.414Z,7.49
2019-02-19T20:11:39.186Z,7.47
2019-02-19T20:14:00.064Z,7.46
2019-02-19T20:16:32.678Z,7.45
2019-02-19T20:19:02.504Z,7.44
2019-02-19T20:21:33.748Z,7.43
2019-02-19T20:24:04.862Z,7.43
2019-02-19T20:26:34.700Z,7.41
2019-02-19T20:29:11.251Z,7.42
2019-02-19T20:31:39.780Z,7.41
2019-02-19T20:34:12.299Z,7.41
2019-02-19T20:36:50.082Z,7.39
2019-02-19T20:39:15.542Z,7.39
2019-02-19T20:41:43.732Z,7.38
2019-02-19T20:44:16.089Z,7.38
2019-02-19T20:46:53.587Z,7.38
2019-02-19T20:49:19.060Z,7.37
2019-02-19T20:51:47.323Z,7.36
2019-02-19T20:54:28.379Z,7.34
2019-02-19T20:56:58.179Z,7.33
2019-02-19T20:59:26.703Z,7.30
2019-02-19T21:01:54.969Z,7.30
2019-02-19T21:04:23.180Z,7.29
2019-02-19T21:06:51.411Z,7.29
2019-02-19T21:09:19.607Z,7.29
2019-02-19T21:11:50.940Z,7.28
2019-02-19T21:14:19.136Z,7.28
2019-02-19T21:16:47.415Z,7.28
2019-02-19T21:19:15.669Z,7.28
2019-02-19T21:21:45.171Z,7.28
2019-02-19T21:24:13.532Z,7.27
2019-02-19T21:26:42.045Z,7.26
2019-02-19T21:29:10.250Z,7.24
2019-02-19T21:31:40.287Z,7.26
2019-02-19T21:34:08.368Z,7.28
2019-02-19T21:36:36.566Z,7.28
2019-02-19T21:39:05.567Z,7.27
2019-02-19T21:41:33.776Z,7.26
2019-02-19T21:44:02.037Z,7.27
2019-02-19T21:46:31.882Z,7.25
2019-02-19T21:49:00.071Z,7.21
2019-02-19T21:51:28.289Z,7.19
2019-02-19T21:53:56.495Z,7.18
2019-02-19T21:56:24.689Z,7.17
2019-02-19T21:58:52.882Z,7.16
2019-02-19T22:01:21.103Z,7.17
2019-02-19T22:03:49.312Z,7.19
2019-02-19T22:06:17.525Z,7.20
2019-02-19T22:08:45.717Z,7.22
2019-02-19T22:11:13.914Z,7.23
2019-02-19T22:13:42.137Z,7.25
2019-02-19T22:16:10.331Z,7.27
2019-02-19T22:18:38.575Z,7.27
2019-02-19T22:21:23.393Z,7.28
2019-02-19T22:23:51.652Z,7.30
2019-02-19T22:26:19.863Z,7.31
2019-02-19T22:28:48.437Z,7.33
2019-02-19T22:31:16.612Z,7.33
2019-02-19T22:33:44.828Z,7.32
2019-02-19T22:36:13.019Z,7.32
2019-02-19T22:38:41.656Z,7.34
2019-02-19T22:41:09.848Z,7.35
2019-02-19T22:43:38.090Z,7.37
2019-02-19T22:46:06.289Z,7.38
2019-02-19T22:48:34.475Z,7.39
2019-02-19T22:51:02.691Z,7.40
2019-02-19T22:53:48.905Z,7.40
2019-02-19T22:56:19.114Z,7.40
2019-02-19T22:58:47.587Z,7.40
2019-02-19T23:01:17.425Z,7.38
2019-02-19T23:03:45.614Z,7.38
2019-02-19T23:06:13.827Z,7.38
2019-02-19T23:08:42.025Z,7.39
2019-02-19T23:11:10.235Z,7.37
2019-02-19T23:13:38.625Z,7.38
2019-02-19T23:16:06.923Z,7.38
2019-02-19T23:18:35.449Z,7.36
2019-02-19T23:21:03.662Z,7.37
2019-02-19T23:23:32.334Z,7.35
2019-02-19T23:26:09.586Z,7.35
2019-02-19T23:28:40.178Z,7.36
2019-02-19T23:31:08.117Z,7.24
2019-02-19T23:33:36.311Z,7.33
2019-02-19T23:36:09.147Z,7.32
2019-02-19T23:38:37.634Z,7.31
2019-02-19T23:41:07.113Z,7.32
2019-02-19T23:43:35.728Z,7.31
2019-02-19T23:46:03.936Z,7.31
2019-02-19T23:48:32.133Z,7.29
2019-02-19T23:51:00.354Z,7.30
2019-02-19T23:53:28.547Z,7.29
2019-02-19T23:55:56.738Z,7.30
2019-02-19T23:58:25.277Z,7.31
